Time;durP1;ratioP1;P1;durP2;ratioP2;P2;SDS_P1;SDS_P2;PMS_P1;PMS_P2;Temp;Humidity;BMP_temperature;BMP_pressure;BME280_temperature;BME280_humidity;BME280_pressure;Samples;Min_cycle;Max_cycle;Signal;HPM_P1;HPM_P2
2022/07/12 00:01:47;;;;;;;5.70;3.65;;;;;;;22.61;54.32;102506.00;5087368;28;20472;-70
2022/07/12 00:04:12;;;;;;;6.43;3.95;;;;;;;22.56;54.21;102509.47;5086643;28;20039;-69
2022/07/12 00:06:37;;;;;;;4.55;3.83;;;;;;;22.42;55.08;102507.47;5086051;28;20047;-69
2022/07/12 00:09:04;;;;;;;5.00;4.50;;;;;;;22.42;55.40;102502.84;5086443;28;20028;-70
2022/07/12 00:11:29;;;;;;;5.25;4.20;;;;;;;22.26;55.46;102506.56;5086701;28;20114;-69
2022/07/12 00:13:54;;;;;;;5.13;3.70;;;;;;;22.24;55.97;102506.00;5086543;28;20437;-70
2022/07/12 00:16:20;;;;;;;6.38;4.60;;;;;;;22.20;56.34;102506.75;5086637;28;20048;-68
2022/07/12 00:18:45;;;;;;;4.65;4.22;;;;;;;22.42;55.75;102500.09;5086516;28;20402;-69
2022/07/12 00:21:11;;;;;;;5.38;4.18;;;;;;;22.48;54.86;102495.47;5085956;28;20032;-68
2022/07/12 00:23:36;;;;;;;5.07;4.57;;;;;;;22.38;55.28;102498.97;5075652;28;20086;-68
2022/07/12 00:26:04;;;;;;;5.25;4.70;;;;;;;22.43;55.26;102495.41;5066019;28;20558;-69
2022/07/12 00:28:30;;;;;;;4.35;3.95;;;;;;;22.43;55.26;102496.25;5065068;28;20043;-69
2022/07/12 00:30:56;;;;;;;4.43;4.03;;;;;;;22.20;56.12;102495.81;5066048;28;20516;-69
2022/07/12 00:33:22;;;;;;;5.22;4.07;;;;;;;22.39;55.51;102500.59;5065729;28;20307;-69
2022/07/12 00:35:47;;;;;;;4.15;3.75;;;;;;;22.51;55.52;102498.50;5065751;28;20035;-68
2022/07/12 00:38:12;;;;;;;4.47;4.00;;;;;;;22.37;55.95;102496.47;5066467;28;20037;-68
2022/07/12 00:40:38;;;;;;;4.20;3.80;;;;;;;22.63;54.95;102488.19;5065962;28;20040;-67
2022/07/12 00:43:03;;;;;;;5.40;3.67;;;;;;;22.69;54.93;102489.03;5065707;28;20044;-68
2022/07/12 00:45:29;;;;;;;3.80;3.50;;;;;;;22.57;54.44;102486.50;5065847;28;20052;-68
2022/07/12 00:47:55;;;;;;;6.75;4.10;;;;;;;22.51;54.75;102484.81;5046530;28;20308;-69
2022/07/12 00:50:22;;;;;;;4.03;3.63;;;;;;;22.59;54.40;102486.25;5070803;28;20487;-68
2022/07/12 00:52:49;;;;;;;3.97;3.55;;;;;;;22.65;54.02;102486.00;5081242;28;20666;-68
2022/07/12 00:55:17;;;;;;;4.40;3.88;;;;;;;22.61;54.36;102482.16;5065314;28;20031;-68
2022/07/12 00:57:47;;;;;;;4.07;3.47;;;;;;;22.55;54.29;102483.19;5081223;28;20036;-67
2022/07/12 01:00:15;;;;;;;3.58;3.28;;;;;;;22.49;53.71;102488.88;5086008;28;20587;-68
2022/07/12 01:02:42;;;;;;;4.13;3.72;;;;;;;22.50;54.40;102490.56;5085590;28;20040;-68
2022/07/12 01:05:08;;;;;;;4.00;3.60;;;;;;;22.42;53.73;102491.88;5085256;28;20702;-69
2022/07/12 01:07:34;;;;;;;3.50;3.20;;;;;;;22.26;54.30;102489.28;5085549;28;20507;-69
2022/07/12 01:10:02;;;;;;;3.60;3.30;;;;;;;22.28;54.90;102496.16;5085132;28;20162;-67
2022/07/12 01:12:27;;;;;;;5.30;3.45;;;;;;;22.29;54.63;102503.28;5084448;28;20403;-69
2022/07/12 01:14:53;;;;;;;3.88;3.53;;;;;;;22.32;54.28;102502.75;5085303;28;20043;-69
2022/07/12 01:17:21;;;;;;;4.15;3.47;;;;;;;22.34;54.13;102500.59;5085487;28;20165;-69
2022/07/12 01:19:48;;;;;;;3.22;2.92;;;;;;;22.28;54.27;102509.03;5075459;28;20021;-68
2022/07/12 01:22:16;;;;;;;3.92;3.58;;;;;;;22.25;54.15;102507.63;5065154;28;20518;-68
2022/07/12 01:24:42;;;;;;;3.60;3.30;;;;;;;22.20;54.52;102518.56;5064618;28;20056;-69
2022/07/12 01:27:08;;;;;;;5.18;3.05;;;;;;;22.22;54.05;102521.03;5064604;28;20048;-69
2022/07/12 01:29:34;;;;;;;3.45;3.13;;;;;;;22.04;54.73;102524.97;5065250;28;20028;-68
2022/07/12 01:34:46;;;;;;;3.38;3.08;;;;;;;22.10;54.44;102525.84;5065363;28;20075;-70
2022/07/12 01:37:14;;;;;;;3.65;3.10;;;;;;;22.03;54.30;102525.25;5064444;28;20048;-69
2022/07/12 01:39:39;;;;;;;4.18;3.47;;;;;;;22.03;53.78;102533.47;5064319;28;20044;-70
2022/07/12 01:42:05;;;;;;;4.85;3.05;;;;;;;21.99;54.46;102533.16;5064954;28;20044;-69
2022/07/12 01:44:31;;;;;;;3.85;3.40;;;;;;;22.09;54.13;102536.00;5064190;28;20521;-68
2022/07/12 01:46:58;;;;;;;3.72;3.42;;;;;;;22.01;54.00;102531.00;5064841;28;20025;-68
2022/07/12 01:49:23;;;;;;;5.07;3.17;;;;;;;22.01;54.30;102533.72;5064798;28;20041;-69
2022/07/12 01:51:49;;;;;;;4.60;3.10;;;;;;;21.99;54.16;102527.69;5063528;28;20367;-68
2022/07/12 01:54:14;;;;;;;5.57;2.97;;;;;;;21.95;54.41;102521.09;5050432;28;20547;-69
2022/07/12 01:56:40;;;;;;;3.17;2.88;;;;;;;21.81;55.37;102525.31;5072390;28;20036;-70
2022/07/12 01:59:05;;;;;;;5.03;3.45;;;;;;;21.74;55.38;102527.38;5084945;28;20063;-69
2022/07/12 02:01:31;;;;;;;3.72;3.40;;;;;;;21.86;54.96;102527.28;5084714;28;20032;-67
2022/07/12 02:04:02;;;;;;;3.55;2.97;;;;;;;21.88;54.60;102531.41;5087196;28;20097;-68
2022/07/12 02:06:29;;;;;;;4.38;3.42;;;;;;;21.80;55.10;102527.22;5088103;28;20067;-69
2022/07/12 02:08:54;;;;;;;3.35;3.05;;;;;;;21.87;54.29;102529.75;5088455;28;20059;-69
2022/07/12 02:11:20;;;;;;;3.28;2.72;;;;;;;21.81;54.08;102525.31;5089397;28;20051;-69
2022/07/12 02:13:45;;;;;;;4.70;3.33;;;;;;;21.81;54.05;102519.84;5088681;28;20517;-69
2022/07/12 02:16:10;;;;;;;3.70;3.05;;;;;;;21.73;53.78;102518.38;5059086;28;20514;-68
2022/07/12 02:18:37;;;;;;;4.97;3.35;;;;;;;21.80;54.12;102532.69;5033520;28;20065;-69
2022/07/12 02:21:03;;;;;;;4.03;3.28;;;;;;;21.74;54.00;102520.00;5067859;28;20388;-69
2022/07/12 02:23:28;;;;;;;4.50;3.03;;;;;;;21.63;53.98;102523.75;5068137;28;20070;-69
2022/07/12 02:25:53;;;;;;;3.17;2.88;;;;;;;21.59;54.18;102519.03;5068513;28;20020;-70
2022/07/12 02:28:19;;;;;;;3.50;2.67;;;;;;;21.45;54.71;102517.78;5067844;28;20048;-69
2022/07/12 02:30:44;;;;;;;3.85;3.03;;;;;;;21.42;55.03;102519.16;5067958;28;20033;-68
2022/07/12 02:33:10;;;;;;;3.45;3.15;;;;;;;21.29;55.27;102515.94;5067944;28;20094;-69
2022/07/12 02:35:35;;;;;;;3.88;3.33;;;;;;;21.46;54.62;102513.97;5067679;28;20396;-68
2022/07/12 02:38:01;;;;;;;3.17;2.90;;;;;;;21.44;54.44;102516.16;5068458;28;20260;-69
2022/07/12 02:43:11;;;;;;;3.08;2.78;;;;;;;21.42;54.75;102518.31;5080610;28;20064;-70
2022/07/12 02:45:36;;;;;;;4.15;3.75;;;;;;;21.53;54.26;102517.31;5067249;28;20049;-68
2022/07/12 02:48:02;;;;;;;4.38;3.88;;;;;;;21.53;54.17;102512.69;5067724;28;20504;-69
2022/07/12 02:50:27;;;;;;;3.97;3.58;;;;;;;21.51;54.37;102514.84;5067043;28;20553;-70
2022/07/12 02:52:53;;;;;;;5.40;3.58;;;;;;;21.44;54.49;102513.41;5067646;28;20515;-68
2022/07/12 02:55:18;;;;;;;4.28;3.88;;;;;;;21.39;54.08;102516.91;5068159;28;20043;-69
2022/07/12 02:57:43;;;;;;;3.90;3.60;;;;;;;21.40;54.39;102520.47;5080430;28;20404;-69
2022/07/12 03:00:09;;;;;;;4.70;3.55;;;;;;;21.27;55.14;102516.22;5067514;28;20033;-68
2022/07/12 03:02:35;;;;;;;4.28;3.88;;;;;;;21.21;55.53;102516.44;5067364;28;20040;-68
2022/07/12 03:05:01;;;;;;;4.30;3.90;;;;;;;21.27;55.17;102526.31;5067393;28;20488;-68
2022/07/12 03:07:26;;;;;;;3.97;3.58;;;;;;;21.16;55.63;102522.66;5067310;28;20033;-68
2022/07/12 03:09:52;;;;;;;5.97;4.20;;;;;;;21.24;55.33;102524.09;5067025;28;20090;-69
2022/07/12 03:12:17;;;;;;;5.78;3.95;;;;;;;21.31;54.96;102525.56;5066940;28;20044;-69
2022/07/12 03:14:42;;;;;;;4.32;3.92;;;;;;;21.29;54.92;102529.63;5066119;28;20617;-68
2022/07/12 03:17:08;;;;;;;4.47;3.80;;;;;;;21.28;54.82;102522.50;5067432;28;20381;-69
2022/07/12 03:19:33;;;;;;;4.13;3.53;;;;;;;21.23;54.83;102522.47;5066780;28;20090;-68
2022/07/12 03:22:00;;;;;;;4.13;3.72;;;;;;;21.11;55.52;102513.56;5067232;28;20037;-69
2022/07/12 03:24:25;;;;;;;5.47;4.15;;;;;;;21.20;54.89;102518.31;5066160;28;20057;-68
2022/07/12 03:26:51;;;;;;;4.28;3.88;;;;;;;21.09;55.60;102518.47;5067459;28;20029;-68
2022/07/12 03:29:16;;;;;;;3.42;3.13;;;;;;;21.13;55.30;102512.19;5067333;28;20040;-69
2022/07/12 03:31:42;;;;;;;5.65;3.75;;;;;;;21.14;55.03;102516.59;5066921;28;20037;-69
2022/07/12 03:34:07;;;;;;;5.80;3.92;;;;;;;21.19;54.99;102519.41;5067106;28;20033;-67
2022/07/12 03:36:32;;;;;;;3.90;3.60;;;;;;;21.16;55.34;102517.19;5066465;28;20036;-69
2022/07/12 03:38:58;;;;;;;4.00;3.60;;;;;;;21.09;55.19;102513.00;5069759;28;20074;-70
2022/07/12 03:41:23;;;;;;;3.35;3.05;;;;;;;20.83;55.56;102509.06;5087572;28;20495;-69
2022/07/12 03:43:49;;;;;;;3.35;3.05;;;;;;;20.76;56.36;102508.41;5087277;28;20059;-68
2022/07/12 03:46:14;;;;;;;3.90;3.50;;;;;;;20.99;55.07;102500.00;5086807;28;20036;-67
2022/07/12 03:48:40;;;;;;;3.63;2.95;;;;;;;20.98;55.55;102496.44;5086824;28;20043;-69
2022/07/12 03:51:05;;;;;;;4.47;3.80;;;;;;;20.87;56.15;102496.56;5075590;28;20025;-70
2022/07/12 03:53:31;;;;;;;3.08;2.83;;;;;;;20.85;56.23;102495.97;5066241;28;20040;-68
2022/07/12 03:55:56;;;;;;;3.58;2.92;;;;;;;20.96;55.52;102495.84;5068595;28;20169;-69
2022/07/12 03:58:21;;;;;;;3.35;2.70;;;;;;;21.01;55.28;102492.41;5086123;28;20044;-70
2022/07/12 04:00:47;;;;;;;3.22;2.95;;;;;;;21.10;55.03;102492.75;5087083;28;20047;-69
2022/07/12 04:03:12;;;;;;;3.78;2.78;;;;;;;21.00;55.16;102491.53;5064630;28;20106;-69
2022/07/12 04:05:38;;;;;;;3.40;3.10;;;;;;;20.92;55.44;102488.41;5066291;28;20032;-67
2022/07/12 04:08:04;;;;;;;3.83;3.45;;;;;;;21.04;55.79;102491.03;5066901;28;20409;-67
2022/07/12 04:10:29;;;;;;;4.50;4.00;;;;;;;20.84;56.42;102499.78;5066078;28;20043;-68
2022/07/12 04:12:55;;;;;;;4.55;3.53;;;;;;;21.10;56.03;102498.22;5066699;28;20044;-67
2022/07/12 04:15:20;;;;;;;3.85;3.50;;;;;;;21.27;55.16;102504.44;5067260;28;20047;-69
2022/07/12 04:17:46;;;;;;;4.38;3.97;;;;;;;21.23;55.29;102508.78;5066577;28;20525;-67
2022/07/12 04:20:12;;;;;;;7.30;4.60;;;;;;;21.20;55.35;102512.84;5066842;28;20039;-69
2022/07/12 04:22:38;;;;;;;4.30;3.90;;;;;;;21.27;55.36;102513.47;5065557;28;20052;-68
2022/07/12 04:25:05;;;;;;;4.30;3.90;;;;;;;21.33;55.63;102514.34;5065719;28;20043;-68
2022/07/12 04:27:31;;;;;;;4.65;4.00;;;;;;;21.28;55.75;102523.34;5066314;28;20060;-68
2022/07/12 04:29:56;;;;;;;4.70;3.78;;;;;;;21.31;55.97;102522.81;5065537;28;20037;-70
2022/07/12 04:32:21;;;;;;;6.07;3.65;;;;;;;21.38;55.68;102522.63;5065292;28;20044;-68
2022/07/12 04:34:47;;;;;;;4.00;3.53;;;;;;;21.13;56.53;102514.13;5067038;28;20032;-68
2022/07/12 04:37:12;;;;;;;4.07;3.67;;;;;;;21.20;56.52;102504.66;5065076;28;20037;-68
2022/07/12 04:39:37;;;;;;;3.92;3.53;;;;;;;21.31;56.33;102508.31;5074415;28;20042;-68
2022/07/12 04:42:03;;;;;;;4.80;4.30;;;;;;;21.21;56.74;102506.28;5085802;28;20421;-69
2022/07/12 04:44:29;;;;;;;4.28;3.88;;;;;;;21.41;56.60;102511.16;5085119;28;20436;-67
2022/07/12 04:46:54;;;;;;;4.57;4.18;;;;;;;21.37;56.60;102508.13;5086334;28;20034;-69
2022/07/12 04:49:19;;;;;;;3.97;3.67;;;;;;;21.48;56.30;102511.81;5085500;28;20044;-69
2022/07/12 04:51:45;;;;;;;4.10;3.70;;;;;;;21.62;56.06;102521.28;5068793;28;20037;-69
2022/07/12 04:54:10;;;;;;;5.72;4.43;;;;;;;21.53;56.89;102517.31;5043554;28;20041;-69
2022/07/12 04:56:36;;;;;;;5.05;4.50;;;;;;;21.56;56.90;102525.03;5045015;28;20025;-68
2022/07/12 04:59:01;;;;;;;5.70;4.70;;;;;;;21.61;57.03;102520.44;5027393;28;20037;-69
2022/07/12 05:01:28;;;;;;;5.40;4.90;;;;;;;21.88;56.70;102519.66;5045360;28;20037;-68
2022/07/12 05:03:54;;;;;;;4.97;4.47;;;;;;;22.03;56.22;102534.28;5046763;28;20060;-68
2022/07/12 05:06:19;;;;;;;7.30;5.63;;;;;;;22.03;56.59;102534.28;5064967;28;20045;-69
2022/07/12 05:08:45;;;;;;;7.07;5.95;;;;;;;22.24;55.87;102536.13;5064788;28;20583;-68
2022/07/12 05:11:10;;;;;;;5.85;5.30;;;;;;;22.39;55.72;102532.66;5065193;28;20017;-70
2022/07/12 05:13:35;;;;;;;6.15;5.55;;;;;;;22.49;56.28;102538.22;5065029;28;20040;-69
2022/07/12 05:16:02;;;;;;;7.68;5.50;;;;;;;22.72;55.16;102528.81;5073157;28;20036;-69
2022/07/12 05:18:27;;;;;;;5.90;5.40;;;;;;;22.62;55.75;102533.13;5084550;28;20039;-68
2022/07/12 05:20:52;;;;;;;7.28;6.10;;;;;;;22.85;55.25;102539.28;5085066;28;20032;-67
2022/07/12 05:23:19;;;;;;;6.65;5.68;;;;;;;23.00;55.22;102548.44;5058003;28;20449;-69
2022/07/12 05:25:45;;;;;;;6.80;6.20;;;;;;;23.11;55.00;102552.06;5064717;28;20040;-69
2022/07/12 05:28:11;;;;;;;6.38;5.78;;;;;;;22.98;55.20;102556.09;5064888;28;20041;-69
2022/07/12 05:30:36;;;;;;;7.03;6.22;;;;;;;22.89;55.48;102552.22;5064169;28;20051;-68
2022/07/12 05:33:02;;;;;;;11.48;6.10;;;;;;;23.06;55.07;102565.72;5064885;28;20409;-69
2022/07/12 05:35:27;;;;;;;6.63;5.95;;;;;;;23.11;54.82;102565.78;5065026;28;20020;-68
2022/07/12 05:37:53;;;;;;;7.93;6.75;;;;;;;23.02;55.56;102567.34;5063876;28;20029;-67
2022/07/12 05:40:18;;;;;;;7.82;6.13;;;;;;;22.94;55.59;102568.69;5061232;28;20051;-67
2022/07/12 05:42:44;;;;;;;6.97;6.28;;;;;;;22.95;55.95;102573.09;5066852;28;20128;-67
2022/07/12 05:45:10;;;;;;;6.70;6.10;;;;;;;22.98;55.15;102567.06;5084284;28;20025;-68
2022/07/12 05:47:35;;;;;;;6.70;6.07;;;;;;;22.82;56.27;102564.50;5060210;28;20045;-69
2022/07/12 05:50:01;;;;;;;6.40;5.28;;;;;;;22.86;55.98;102571.13;5061621;28;20021;-69
2022/07/12 05:55:10;;;;;;;7.25;6.60;;;;;;;23.18;55.27;102564.44;5060850;28;20549;-67
2022/07/12 05:57:36;;;;;;;7.93;7.15;;;;;;;23.04;56.14;102560.50;5063283;28;20040;-68
2022/07/12 06:00:03;;;;;;;8.00;7.20;;;;;;;23.28;55.43;102561.72;5064319;28;20317;-66
2022/07/12 06:02:29;;;;;;;8.35;7.22;;;;;;;23.42;55.34;102553.84;5063819;28;20035;-63
2022/07/12 06:04:54;;;;;;;8.07;7.38;;;;;;;23.27;56.00;102562.00;5046929;28;20036;-64
2022/07/12 06:07:20;;;;;;;9.43;7.80;;;;;;;23.52;55.45;102557.47;5062124;28;20037;-63
2022/07/12 06:09:45;;;;;;;8.52;7.50;;;;;;;23.76;55.33;102573.44;5045470;28;20059;-63
2022/07/12 06:12:10;;;;;;;7.65;6.95;;;;;;;23.72;55.06;102564.09;5046631;28;20037;-63
2022/07/12 06:14:36;;;;;;;7.65;6.90;;;;;;;23.41;55.88;102563.16;5063731;28;20053;-63
2022/07/12 06:17:02;;;;;;;6.95;6.25;;;;;;;23.61;55.91;102571.47;5079182;28;20373;-65
2022/07/12 06:19:27;;;;;;;7.43;6.72;;;;;;;23.72;55.67;102569.59;5064440;28;20033;-63
2022/07/12 06:21:52;;;;;;;7.35;6.65;;;;;;;23.35;56.75;102567.81;5063838;28;20036;-66
2022/07/12 06:24:18;;;;;;;6.82;6.03;;;;;;;23.78;55.19;102568.50;5064296;28;20036;-63
2022/07/12 06:26:43;;;;;;;9.23;5.90;;;;;;;24.01;54.11;102562.50;5064211;28;20041;-64
2022/07/12 06:29:09;;;;;;;6.15;5.57;;;;;;;24.35;53.62;102569.97;5064229;28;20013;-64
2022/07/12 06:31:34;;;;;;;7.10;6.07;;;;;;;24.38;53.50;102574.09;5063043;28;20040;-65
2022/07/12 06:34:01;;;;;;;16.90;5.70;;;;;;;24.48;53.38;102563.09;5064643;28;20045;-66
2022/07/12 06:36:27;;;;;;;6.53;5.80;;;;;;;24.63;53.13;102563.06;5065449;28;20680;-65
2022/07/12 06:38:52;;;;;;;5.85;5.30;;;;;;;24.40;53.53;102567.22;5067428;28;20055;-66
2022/07/12 06:41:17;;;;;;;5.97;5.43;;;;;;;24.57;53.24;102571.63;5084279;28;20031;-64
2022/07/12 06:43:43;;;;;;;6.00;5.50;;;;;;;24.37;53.85;102570.50;5081748;28;20035;-64
2022/07/12 06:46:08;;;;;;;5.63;5.13;;;;;;;24.62;52.97;102572.44;5072262;28;20400;-65
2022/07/12 06:48:34;;;;;;;6.07;5.47;;;;;;;24.47;53.11;102575.16;5083482;28;20036;-64
2022/07/12 06:50:59;;;;;;;7.30;4.90;;;;;;;24.68;53.07;102579.56;5075916;28;20040;-64
2022/07/12 06:53:25;;;;;;;6.00;5.40;;;;;;;24.85;52.17;102571.03;5066732;28;20036;-65
2022/07/12 06:55:50;;;;;;;5.80;5.32;;;;;;;23.88;54.72;102576.78;5067486;28;20055;-65
2022/07/12 06:58:16;;;;;;;5.95;5.35;;;;;;;24.69;53.23;102581.19;5067338;28;20690;-64
2022/07/12 07:00:42;;;;;;;6.93;5.63;;;;;;;24.76;52.79;102565.28;5066653;28;20037;-64
2022/07/12 07:03:08;;;;;;;5.90;5.40;;;;;;;24.81;52.86;102573.53;5048804;28;20401;-64
2022/07/12 07:05:34;;;;;;;6.07;5.47;;;;;;;24.78;52.99;102571.34;5067475;28;20041;-64
2022/07/12 07:07:59;;;;;;;6.32;5.72;;;;;;;25.16;52.41;102573.41;5067432;28;20305;-65
2022/07/12 07:10:25;;;;;;;7.00;5.63;;;;;;;25.56;51.61;102566.94;5048016;28;20519;-63
2022/07/12 07:12:50;;;;;;;6.38;5.78;;;;;;;25.69;51.65;102571.00;5067519;28;20106;-64
2022/07/12 07:15:16;;;;;;;6.30;5.72;;;;;;;25.68;51.09;102569.34;5068372;28;20049;-66
2022/07/12 07:17:42;;;;;;;6.07;5.47;;;;;;;25.27;52.52;102563.19;5087047;28;20395;-65
2022/07/12 07:20:09;;;;;;;6.30;5.70;;;;;;;25.82;51.14;102560.19;5087457;28;20119;-66
2022/07/12 07:22:34;;;;;;;5.18;4.68;;;;;;;26.13;50.77;102555.28;5084050;28;20043;-66
2022/07/12 07:25:00;;;;;;;8.40;5.43;;;;;;;26.28;50.78;102557.91;5066445;28;20476;-64
2022/07/12 07:27:26;;;;;;;5.90;5.40;;;;;;;26.10;50.83;102555.88;5066383;28;20119;-66
2022/07/12 07:32:35;;;;;;;4.82;4.43;;;;;;;26.70;50.21;102560.88;5066394;28;20040;-65
2022/07/12 07:35:02;;;;;;;4.55;4.13;;;;;;;26.56;49.85;102554.34;5066979;28;20032;-66
2022/07/12 07:37:27;;;;;;;4.75;4.32;;;;;;;26.56;49.83;102556.28;5066824;28;20063;-64
2022/07/12 07:39:53;;;;;;;4.60;4.20;;;;;;;27.32;47.77;102551.56;5076917;28;20479;-64
2022/07/12 07:42:18;;;;;;;3.97;3.58;;;;;;;27.67;47.28;102555.84;5087182;28;20040;-66
2022/07/12 07:44:44;;;;;;;4.28;3.88;;;;;;;27.80;47.22;102555.06;5086575;28;20098;-65
2022/07/12 07:47:09;;;;;;;4.50;4.10;;;;;;;28.15;46.87;102554.53;5077192;28;20043;-64
2022/07/12 07:49:34;;;;;;;7.57;4.47;;;;;;;27.62;47.60;102553.97;5066429;28;20047;-66
2022/07/12 07:52:02;;;;;;;5.03;3.80;;;;;;;27.28;48.59;102547.75;5065954;28;20083;-66
2022/07/12 07:54:27;;;;;;;4.85;3.17;;;;;;;26.98;48.28;102550.09;5064808;28;20127;-64
2022/07/12 07:56:52;;;;;;;3.30;3.05;;;;;;;27.66;47.13;102562.47;5066299;28;20040;-65
2022/07/12 07:59:18;;;;;;;4.30;3.45;;;;;;;27.56;47.31;102562.59;5066305;28;20021;-63
2022/07/12 08:01:47;;;;;;;3.90;3.50;;;;;;;26.91;48.93;102562.28;5065717;28;20033;-66
2022/07/12 08:04:14;;;;;;;4.77;4.30;;;;;;;28.08;47.34;102562.41;5066299;28;20036;-66
2022/07/12 08:06:40;;;;;;;3.20;2.90;;;;;;;28.53;45.76;102567.16;5065557;28;20488;-65
2022/07/12 08:09:06;;;;;;;3.00;2.78;;;;;;;28.83;44.93;102568.59;5065551;28;20036;-65
2022/07/12 08:11:31;;;;;;;3.33;3.03;;;;;;;28.99;45.01;102563.56;5066293;28;20040;-64
2022/07/12 08:13:57;;;;;;;3.28;3.00;;;;;;;28.89;44.88;102567.38;5066298;28;20027;-65
2022/07/12 08:16:22;;;;;;;3.55;2.63;;;;;;;29.13;44.20;102559.69;5072207;28;20067;-65
2022/07/12 08:18:48;;;;;;;3.45;2.63;;;;;;;28.50;45.05;102576.06;5065918;28;20105;-65
2022/07/12 08:21:13;;;;;;;2.88;2.47;;;;;;;28.68;45.01;102566.09;5065128;28;20518;-66
2022/07/12 08:23:38;;;;;;;3.38;2.60;;;;;;;29.29;43.92;102561.00;5065561;28;20040;-66
2022/07/12 08:26:04;;;;;;;2.83;2.53;;;;;;;29.17;43.02;102562.69;5065374;28;20062;-64
2022/07/12 08:28:29;;;;;;;4.18;2.75;;;;;;;29.15;43.50;102567.72;5065255;28;20032;-66
2022/07/12 08:30:55;;;;;;;5.28;2.90;;;;;;;29.22;43.00;102560.63;5065450;28;20079;-65
2022/07/12 08:33:21;;;;;;;2.92;2.67;;;;;;;28.95;43.35;102565.31;5065331;28;20041;-65
2022/07/12 08:35:46;;;;;;;5.93;3.15;;;;;;;28.89;43.37;102569.31;5047729;28;20029;-65
2022/07/12 08:38:12;;;;;;;2.72;2.53;;;;;;;29.15;42.94;102571.28;5066582;28;20036;-63
2022/07/12 08:40:37;;;;;;;4.38;2.20;;;;;;;28.88;41.38;102575.94;5062078;28;20132;-65
2022/07/12 08:43:03;;;;;;;5.53;2.60;;;;;;;29.14;41.09;102568.81;5065233;28;20110;-66
2022/07/12 08:45:28;;;;;;;3.35;2.88;;;;;;;28.01;44.70;102567.50;5047187;28;20041;-64
2022/07/12 08:47:54;;;;;;;2.50;2.30;;;;;;;28.89;43.20;102572.06;5065608;28;20052;-65
2022/07/12 08:50:22;;;;;;;5.78;3.40;;;;;;;28.71;43.23;102565.50;5064852;28;20046;-66
2022/07/12 08:52:51;;;;;;;3.13;2.83;;;;;;;28.86;43.40;102569.91;5063114;28;20029;-66
2022/07/12 08:55:19;;;;;;;4.40;3.05;;;;;;;28.53;42.66;102575.47;5064032;28;20040;-65
2022/07/12 08:57:45;;;;;;;5.32;4.15;;;;;;;28.75;41.04;102580.34;5063872;28;20045;-64
2022/07/12 09:00:11;;;;;;;5.80;4.05;;;;;;;29.13;39.84;102572.69;5045968;28;20040;-67
2022/07/12 09:02:46;;;;;;;8.15;3.55;;;;;;;29.11;42.06;102572.97;5045662;28;20036;-65
2022/07/12 09:05:13;;;;;;;4.03;3.22;;;;;;;29.27;42.23;102565.22;5064373;28;20021;-65
2022/07/12 09:07:39;;;;;;;4.00;3.33;;;;;;;29.38;41.72;102561.94;5063904;28;20045;-65
2022/07/12 09:10:06;;;;;;;6.10;3.83;;;;;;;29.77;40.63;102557.75;5064172;28;20353;-64
2022/07/12 09:12:35;;;;;;;6.05;3.70;;;;;;;29.88;39.94;102550.84;5062497;28;20156;-66
2022/07/12 09:15:20;;;;;;;4.25;3.85;;;;;;;29.30;40.66;102546.03;5045752;28;20054;-64
2022/07/12 09:17:48;;;;;;;3.63;3.17;;;;;;;30.03;40.04;102537.44;5062032;28;20374;-65
2022/07/12 09:20:15;;;;;;;4.78;3.20;;;;;;;30.36;38.68;102539.97;5064266;28;20395;-66
2022/07/12 09:22:56;;;;;;;3.70;3.40;;;;;;;30.06;39.39;102536.81;5061920;28;20055;-65
2022/07/12 09:25:22;;;;;;;4.18;3.28;;;;;;;30.07;38.89;102527.34;5064497;28;20028;-65
2022/07/12 09:27:50;;;;;;;5.28;3.80;;;;;;;30.47;38.11;102530.25;5064119;28;20059;-65
2022/07/12 09:30:16;;;;;;;4.30;2.88;;;;;;;30.69;38.00;102531.00;5063675;28;20048;-67
2022/07/12 09:36:14;;;;;;;6.28;3.90;;;;;;;30.58;38.75;102523.28;4979335;28;20046;-66
2022/07/12 09:38:49;;;;;;;2.95;2.65;;;;;;;31.03;37.47;102525.63;4981248;28;20549;-64
2022/07/12 09:41:19;;;;;;;2.95;1.90;;;;;;;31.03;36.45;102524.78;4981823;28;20068;-66
2022/07/12 09:43:45;;;;;;;4.22;2.17;;;;;;;30.57;37.30;102524.38;4980601;28;20049;-64
2022/07/12 09:46:10;;;;;;;3.22;2.40;;;;;;;30.58;37.28;102524.09;4981838;28;20340;-66
2022/07/12 09:48:37;;;;;;;2.72;1.80;;;;;;;30.72;36.91;102524.78;4981632;28;20045;-67
2022/07/12 09:51:04;;;;;;;6.15;2.80;;;;;;;31.17;36.14;102517.94;4982189;28;20031;-65
2022/07/12 09:53:33;;;;;;;3.58;2.30;;;;;;;30.68;36.20;102521.03;4981721;28;20069;-66
2022/07/12 09:56:05;;;;;;;3.85;2.28;;;;;;;30.78;35.61;102522.72;4982030;28;20042;-67
2022/07/12 09:58:34;;;;;;;8.63;2.35;;;;;;;30.69;36.03;102531.00;4981500;28;20229;-66
2022/07/12 10:01:01;;;;;;;2.23;2.03;;;;;;;31.56;35.18;102528.19;4980486;28;20053;-66
2022/07/12 10:03:31;;;;;;;1.60;1.50;;;;;;;31.40;34.92;102534.53;4980076;28;20061;-68
2022/07/12 10:06:02;;;;;;;2.80;1.60;;;;;;;31.87;34.38;102533.56;4979197;28;20061;-65
2022/07/12 10:08:29;;;;;;;6.45;2.33;;;;;;;31.97;33.85;102541.63;4980555;28;20038;-68
2022/07/12 10:10:56;;;;;;;1.95;1.50;;;;;;;32.10;33.23;102528.69;4982348;28;20206;-71
2022/07/12 10:13:22;;;;;;;1.38;0.95;;;;;;;31.68;33.99;102528.34;5030457;28;20628;-70
2022/07/12 10:15:49;;;;;;;1.98;1.50;;;;;;;31.98;33.44;102530.16;5063945;28;20135;-70
2022/07/12 10:18:21;;;;;;;2.35;1.50;;;;;;;32.12;34.29;102523.59;5062311;28;20111;-64
2022/07/12 10:20:50;;;;;;;3.45;1.52;;;;;;;32.12;32.39;102524.41;5063326;28;20024;-64
2022/07/12 10:23:19;;;;;;;4.53;1.30;;;;;;;32.16;32.77;102527.38;5063024;28;20511;-63
2022/07/12 10:25:44;;;;;;;1.05;0.80;;;;;;;32.49;33.34;102531.25;5064709;28;20023;-62
2022/07/12 10:28:10;;;;;;;1.63;0.77;;;;;;;32.81;32.40;102528.63;5067984;28;20040;-64
2022/07/12 10:30:45;;;;;;;3.03;0.85;;;;;;;33.02;32.00;102536.28;5067532;28;20032;-64
2022/07/12 10:33:17;;;;;;;0.68;0.68;;;;;;;33.26;30.75;102533.69;5066439;28;20826;-64
2022/07/12 10:36:02;;;;;;;1.42;1.02;;;;;;;33.12;30.66;102530.31;5087695;28;20492;-65
2022/07/12 10:38:29;;;;;;;1.60;0.65;;;;;;;33.21;30.34;102528.28;5047059;28;20563;-63
2022/07/12 10:40:55;;;;;;;1.92;1.13;;;;;;;33.35;30.47;102524.09;5031013;28;20090;-63
2022/07/12 10:44:04;;;;;;;0.82;0.65;;;;;;;33.49;31.09;102529.44;5065825;28;20400;-65
2022/07/12 10:46:14;;;;;;;1.35;0.52;;;;;;;33.89;29.91;102524.19;5047875;28;20479;-63
2022/07/12 10:48:39;;;;;;;1.25;0.40;;;;;;;33.94;30.03;102533.16;5065422;28;20127;-65
2022/07/12 10:51:13;;;;;;;1.13;0.63;;;;;;;33.95;30.16;102522.78;5066740;28;20120;-65
2022/07/12 10:53:42;;;;;;;0.63;0.50;;;;;;;33.84;30.52;102516.03;5066667;28;20693;-70
2022/07/12 10:56:19;;;;;;;0.85;0.70;;;;;;;33.82;29.48;102521.13;5067853;28;20123;-70
2022/07/12 10:58:55;;;;;;;2.15;0.70;;;;;;;33.87;30.03;102523.72;5067576;28;20040;-69
2022/07/12 11:01:25;;;;;;;1.08;0.90;;;;;;;34.18;29.85;102521.31;5065164;28;20052;-70
2022/07/12 11:03:54;;;;;;;0.65;0.40;;;;;;;33.85;29.66;102517.66;5066500;28;20116;-69
2022/07/12 11:06:24;;;;;;;2.78;0.80;;;;;;;34.13;29.25;102522.31;5062291;28;20047;-68
2022/07/12 11:08:56;;;;;;;0.40;0.40;;;;;;;34.52;29.63;102514.53;5059969;28;20071;-70
2022/07/12 11:11:23;;;;;;;1.75;0.57;;;;;;;34.24;29.62;102514.34;5064562;28;20028;-70
2022/07/12 11:13:49;;;;;;;3.70;0.70;;;;;;;34.68;29.44;102513.50;5064972;28;20035;-68
2022/07/12 11:16:17;;;;;;;1.90;0.47;;;;;;;34.48;29.45;102509.63;5062756;28;20693;-70
2022/07/12 11:18:43;;;;;;;1.08;0.70;;;;;;;34.97;29.57;102502.09;5066042;28;20094;-68
2022/07/12 11:21:09;;;;;;;1.42;0.45;;;;;;;35.32;28.58;102500.41;5064260;28;20112;-71
2022/07/12 11:23:35;;;;;;;2.17;0.80;;;;;;;35.36;28.43;102498.53;5065689;28;21231;-70
2022/07/12 11:26:02;;;;;;;1.30;1.20;;;;;;;35.02;28.53;102489.88;5047663;28;20044;-71
2022/07/12 11:28:29;;;;;;;1.02;0.70;;;;;;;35.32;29.00;102496.84;5066377;28;20039;-68
2022/07/12 11:31:05;;;;;;;2.65;0.80;;;;;;;35.58;28.77;102502.03;5066318;28;20459;-70
2022/07/12 11:33:33;;;;;;;4.13;1.23;;;;;;;35.74;27.99;102488.88;5065781;28;20550;-70
2022/07/12 11:36:01;;;;;;;1.08;0.50;;;;;;;35.03;28.19;102494.28;5062680;28;20326;-69